Time;durP1;ratioP1;P1;durP2;ratioP2;P2;SDS_P1;SDS_P2;PMS_P1;PMS_P2;Temp;Humidity;BMP_temperature;BMP_pressure;BME280_temperature;BME280_humidity;BME280_pressure;Samples;Min_cycle;Max_cycle;Signal;HPM_P1;HPM_P2
2022/10/17 00:01:10;;;;;;;5.35;4.78;;;12.40;99.90;;;;;;5046139;28;20025;-85
2022/10/17 00:03:38;;;;;;;7.90;5.50;;;12.40;99.90;;;;;;5020945;28;20132;-87
2022/10/17 00:06:07;;;;;;;7.18;5.63;;;12.40;99.90;;;;;;5054238;28;20062;-86
2022/10/17 00:08:32;;;;;;;7.28;5.18;;;12.40;99.90;;;;;;5054014;28;20028;-87
2022/10/17 00:11:01;;;;;;;8.10;5.57;;;12.40;99.90;;;;;;5053691;28;20078;-87
2022/10/17 00:13:28;;;;;;;5.75;4.68;;;12.40;99.90;;;;;;5070367;28;20036;-87
2022/10/17 00:15:54;;;;;;;6.45;4.78;;;12.40;99.90;;;;;;5055778;28;20094;-86
2022/10/17 00:18:20;;;;;;;8.45;5.55;;;12.40;99.90;;;;;;5037266;28;20036;-85
2022/10/17 00:20:46;;;;;;;8.20;5.80;;;12.40;99.90;;;;;;5036084;28;20036;-86
2022/10/17 00:23:12;;;;;;;7.55;4.88;;;12.40;99.90;;;;;;5053722;28;20028;-86
2022/10/17 00:25:39;;;;;;;7.55;5.07;;;12.40;99.90;;;;;;5053155;28;20397;-87
2022/10/17 00:28:07;;;;;;;7.88;5.53;;;12.40;99.90;;;;;;5070691;28;20131;-87
2022/10/17 00:30:33;;;;;;;8.48;5.25;;;12.40;99.90;;;;;;5036761;28;20033;-86
2022/10/17 00:32:59;;;;;;;8.27;5.72;;;12.40;99.90;;;;;;5036893;28;20028;-86
2022/10/17 00:35:25;;;;;;;8.98;5.28;;;12.40;99.90;;;;;;5020553;28;20033;-86
2022/10/17 00:37:50;;;;;;;9.15;5.85;;;12.40;99.90;;;;;;5017402;28;20044;-87
2022/10/17 00:40:17;;;;;;;8.57;5.72;;;12.40;99.90;;;;;;5052172;28;20035;-87
2022/10/17 00:42:45;;;;;;;7.95;5.28;;;12.50;99.90;;;;;;5054447;28;20029;-86
2022/10/17 00:45:22;;;;;;;7.90;5.63;;;12.60;99.90;;;;;;5051213;28;20500;-87
2022/10/17 00:47:57;;;;;;;9.82;5.82;;;12.60;99.90;;;;;;5070358;28;20031;-86
2022/10/17 00:50:23;;;;;;;7.32;5.53;;;12.60;99.90;;;;;;5053495;28;20082;-87
2022/10/17 00:52:50;;;;;;;6.82;5.47;;;12.60;99.90;;;;;;5036988;28;20029;-85
2022/10/17 00:55:24;;;;;;;5.63;4.85;;;12.60;99.90;;;;;;5031037;28;20117;-86
2022/10/17 00:57:50;;;;;;;6.65;4.18;;;12.60;99.90;;;;;;5067147;28;20139;-86
2022/10/17 01:00:18;;;;;;;5.15;4.35;;;12.60;99.90;;;;;;5049906;28;20036;-87
2022/10/17 01:02:44;;;;;;;9.68;4.65;;;12.50;99.90;;;;;;5052035;28;20029;-87
2022/10/17 01:05:11;;;;;;;6.43;4.32;;;12.50;99.90;;;;;;5050319;28;20037;-88
2022/10/17 01:07:39;;;;;;;9.80;4.95;;;12.40;99.90;;;;;;5068538;28;20025;-87
2022/10/17 01:10:07;;;;;;;8.55;4.82;;;12.40;99.90;;;;;;5049873;28;20040;-87
2022/10/17 01:12:57;;;;;;;5.63;5.00;;;12.40;99.90;;;;;;5052373;28;20031;-86
2022/10/17 01:15:42;;;;;;;6.80;4.70;;;12.30;99.90;;;;;;5051785;28;20025;-86
2022/10/17 01:18:27;;;;;;;5.13;4.00;;;12.30;99.90;;;;;;5059952;28;20036;-86
2022/10/17 01:21:31;;;;;;;8.85;5.13;;;12.30;99.90;;;;;;5064083;28;20024;-87
2022/10/17 01:24:20;;;;;;;7.40;4.72;;;12.30;99.90;;;;;;5066171;28;20064;-88
2022/10/17 01:27:21;;;;;;;5.18;4.63;;;12.30;99.90;;;;;;5045770;28;20119;-87
2022/10/17 01:30:02;;;;;;;11.95;5.68;;;12.30;99.90;;;;;;5052574;28;20035;-87
2022/10/17 01:32:35;;;;;;;10.70;5.82;;;12.30;99.90;;;;;;5052354;28;20024;-87
2022/10/17 01:35:10;;;;;;;7.25;5.47;;;12.30;99.90;;;;;;5047395;28;20140;-87
2022/10/17 01:37:59;;;;;;;16.40;5.33;;;12.30;99.90;;;;;;5032605;28;20393;-87
2022/10/17 01:40:34;;;;;;;7.55;5.38;;;12.30;99.90;;;;;;5051950;28;20264;-88
2022/10/17 01:43:07;;;;;;;7.28;5.57;;;12.30;99.90;;;;;;5050741;28;20033;-87
2022/10/17 01:45:46;;;;;;;12.30;5.93;;;12.30;99.90;;;;;;5035853;28;20066;-87
2022/10/17 01:48:21;;;;;;;8.65;4.82;;;12.40;99.90;;;;;;5066353;28;20037;-86
2022/10/17 01:50:57;;;;;;;7.78;5.13;;;12.30;99.90;;;;;;5068056;28;20499;-87
2022/10/17 01:53:32;;;;;;;5.47;4.65;;;12.30;99.90;;;;;;5068716;28;20037;-86
2022/10/17 01:56:01;;;;;;;6.30;4.70;;;12.30;99.90;;;;;;5035726;28;20059;-87
2022/10/17 01:58:31;;;;;;;5.90;4.70;;;12.20;99.90;;;;;;5036484;28;20032;-87
2022/10/17 02:01:00;;;;;;;8.57;5.47;;;12.20;99.90;;;;;;5052116;28;20028;-86
2022/10/17 02:03:31;;;;;;;6.70;5.30;;;12.20;99.90;;;;;;5052508;28;20056;-86
2022/10/17 02:05:57;;;;;;;6.38;4.50;;;12.10;99.90;;;;;;5042837;28;20052;-86
2022/10/17 02:08:43;;;;;;;5.53;4.70;;;12.10;99.90;;;;;;5019687;28;20524;-87
2022/10/17 02:11:15;;;;;;;5.45;4.60;;;12.10;99.90;;;;;;5040533;28;20040;-87
2022/10/17 02:13:48;;;;;;;5.63;4.85;;;12.10;99.90;;;;;;5068650;28;20063;-87
2022/10/17 02:16:53;;;;;;;10.48;5.07;;;12.00;99.90;;;;;;5070950;28;20035;-86
2022/10/17 02:19:38;;;;;;;6.68;4.93;;;12.00;99.90;;;;;;5044966;28;20042;-86
2022/10/17 02:22:28;;;;;;;7.63;5.38;;;12.00;99.90;;;;;;5047490;28;20497;-86
2022/10/17 02:25:21;;;;;;;9.48;5.38;;;11.90;99.90;;;;;;5069115;28;20044;-86
2022/10/17 02:28:19;;;;;;;8.35;6.30;;;11.90;99.90;;;;;;5053635;28;20033;-87
2022/10/17 02:30:57;;;;;;;10.88;6.13;;;12.00;99.90;;;;;;5047890;28;20449;-87
2022/10/17 02:33:26;;;;;;;9.07;5.93;;;12.10;99.90;;;;;;5067326;28;20754;-87
2022/10/17 02:36:00;;;;;;;8.45;6.00;;;12.10;99.90;;;;;;5058375;28;20576;-87
2022/10/17 02:38:28;;;;;;;10.68;6.18;;;12.20;99.90;;;;;;5056788;28;20027;-86
2022/10/17 02:40:54;;;;;;;9.60;5.60;;;12.20;99.90;;;;;;5055578;28;20032;-87
2022/10/17 02:43:21;;;;;;;8.55;5.28;;;12.30;99.90;;;;;;5054885;28;20055;-87
2022/10/17 02:45:48;;;;;;;9.88;6.13;;;12.30;99.90;;;;;;5054830;28;20044;-87
2022/10/17 02:48:37;;;;;;;7.85;5.38;;;12.30;99.90;;;;;;5055753;28;20032;-87
2022/10/17 02:51:21;;;;;;;7.93;5.20;;;12.30;99.90;;;;;;5046307;28;20044;-86
2022/10/17 02:54:10;;;;;;;6.63;4.90;;;12.20;99.90;;;;;;5037282;28;20025;-87
2022/10/17 02:56:53;;;;;;;7.90;4.80;;;12.30;99.90;;;;;;5057821;28;20029;-86
2022/10/17 02:59:23;;;;;;;12.88;6.00;;;12.20;99.90;;;;;;5055684;28;20037;-87
2022/10/17 03:01:50;;;;;;;8.02;6.03;;;12.30;99.90;;;;;;5051637;28;20082;-88
2022/10/17 03:04:17;;;;;;;9.25;6.22;;;12.30;99.90;;;;;;5035081;28;20063;-87
2022/10/17 03:06:45;;;;;;;9.55;6.55;;;12.40;99.90;;;;;;5038547;28;20391;-87
2022/10/17 03:09:11;;;;;;;11.27;7.10;;;12.40;99.90;;;;;;5022705;28;20194;-87
2022/10/17 03:11:37;;;;;;;11.98;6.50;;;12.40;99.90;;;;;;5054965;28;20085;-87
2022/10/17 03:14:04;;;;;;;11.10;6.30;;;12.50;99.90;;;;;;5039091;28;20537;-86
2022/10/17 03:16:30;;;;;;;12.82;6.35;;;12.50;99.90;;;;;;5022454;28;20028;-88
2022/10/17 03:18:56;;;;;;;10.52;6.38;;;12.50;99.90;;;;;;5055740;28;20016;-86
2022/10/17 03:21:22;;;;;;;8.00;5.45;;;12.50;99.90;;;;;;5038774;28;20051;-88
2022/10/17 03:23:48;;;;;;;8.15;5.95;;;12.50;99.90;;;;;;5023121;28;20032;-87
2022/10/17 03:26:14;;;;;;;10.07;5.93;;;12.50;99.90;;;;;;5039160;28;20029;-88
2022/10/17 03:28:40;;;;;;;8.02;6.03;;;12.60;99.90;;;;;;5039345;28;20382;-87
2022/10/17 03:31:13;;;;;;;10.15;6.07;;;12.60;99.90;;;;;;5071674;28;20078;-88
2022/10/17 03:33:39;;;;;;;12.38;6.47;;;12.60;99.90;;;;;;5040075;28;20040;-87
2022/10/17 03:36:13;;;;;;;11.80;6.90;;;12.60;99.90;;;;;;5051563;28;20504;-86
2022/10/17 03:38:40;;;;;;;12.30;7.00;;;12.60;99.90;;;;;;5037744;28;20059;-86
2022/10/17 03:41:07;;;;;;;8.93;6.60;;;12.60;99.90;;;;;;5054247;28;20063;-87
2022/10/17 03:43:34;;;;;;;9.25;6.30;;;12.60;99.90;;;;;;5054892;28;20496;-87
2022/10/17 03:46:01;;;;;;;9.30;6.00;;;12.60;99.90;;;;;;5051755;28;20030;-87
2022/10/17 03:48:29;;;;;;;10.50;6.00;;;12.70;99.90;;;;;;5053685;28;20035;-85
2022/10/17 03:51:00;;;;;;;13.88;7.03;;;12.60;99.90;;;;;;5053259;28;20488;-86
2022/10/17 03:53:26;;;;;;;8.40;5.50;;;12.60;99.90;;;;;;5070306;28;20086;-86
2022/10/17 03:55:52;;;;;;;7.20;4.75;;;12.60;99.90;;;;;;5043156;28;20052;-87
2022/10/17 03:58:18;;;;;;;7.10;5.47;;;12.50;99.90;;;;;;5054398;28;20060;-86
2022/10/17 04:00:44;;;;;;;8.30;5.68;;;12.50;99.90;;;;;;5037066;28;20028;-86
2022/10/17 04:03:10;;;;;;;5.47;4.60;;;12.50;99.90;;;;;;5020078;28;20029;-86
2022/10/17 04:05:36;;;;;;;10.13;4.90;;;12.50;99.90;;;;;;5053053;28;20134;-86
2022/10/17 04:08:02;;;;;;;9.38;5.22;;;12.50;99.90;;;;;;5037292;28;20047;-86
2022/10/17 04:10:47;;;;;;;7.50;5.00;;;12.40;99.90;;;;;;5044300;28;20120;-86
2022/10/17 04:13:13;;;;;;;6.78;5.00;;;12.40;99.90;;;;;;5052805;28;20059;-86
2022/10/17 04:15:39;;;;;;;5.85;4.22;;;12.40;99.90;;;;;;5061321;28;20463;-86
2022/10/17 04:18:05;;;;;;;6.38;4.97;;;12.40;99.90;;;;;;5033348;28;20040;-87
2022/10/17 04:20:33;;;;;;;10.82;6.00;;;12.30;99.90;;;;;;5050945;28;20085;-85
2022/10/17 04:22:59;;;;;;;10.13;5.35;;;12.40;99.90;;;;;;5069786;28;20067;-86
2022/10/17 04:25:25;;;;;;;6.78;5.07;;;12.40;99.90;;;;;;5053031;28;20489;-86
2022/10/17 04:27:51;;;;;;;6.30;5.65;;;12.40;99.90;;;;;;5037049;28;20092;-86
2022/10/17 04:30:18;;;;;;;7.43;5.15;;;12.40;99.90;;;;;;5053256;28;20028;-87
2022/10/17 04:32:44;;;;;;;8.38;5.90;;;12.40;99.90;;;;;;5020867;28;20029;-86
2022/10/17 04:35:13;;;;;;;10.90;5.90;;;12.40;99.90;;;;;;5043657;28;20033;-86
2022/10/17 04:37:44;;;;;;;14.32;7.05;;;12.50;99.90;;;;;;5036992;28;20056;-87
2022/10/17 04:40:16;;;;;;;11.98;6.65;;;12.50;99.90;;;;;;5042336;28;20040;-85
2022/10/17 04:42:42;;;;;;;12.38;6.22;;;12.60;99.90;;;;;;5069862;28;20050;-87
2022/10/17 04:45:10;;;;;;;10.15;5.97;;;12.60;99.90;;;;;;5036720;28;20033;-86
2022/10/17 04:47:36;;;;;;;8.30;6.55;;;12.60;99.90;;;;;;5020439;28;20028;-85
2022/10/17 04:50:03;;;;;;;9.43;6.22;;;12.70;99.90;;;;;;5052684;28;20028;-87
2022/10/17 04:52:34;;;;;;;12.60;6.20;;;12.70;99.90;;;;;;5052864;28;20059;-86
2022/10/17 04:54:59;;;;;;;8.57;5.85;;;12.80;99.90;;;;;;5050402;28;20021;-86
2022/10/17 04:57:26;;;;;;;10.85;5.82;;;12.80;99.90;;;;;;5051305;28;20074;-85
2022/10/17 05:00:08;;;;;;;9.82;5.55;;;12.70;99.90;;;;;;5026591;28;20111;-86
2022/10/17 05:02:53;;;;;;;9.65;5.78;;;12.70;99.90;;;;;;5035336;28;20044;-86
2022/10/17 05:05:19;;;;;;;8.60;6.15;;;12.70;99.90;;;;;;5066000;28;20117;-86
2022/10/17 05:07:48;;;;;;;6.13;5.03;;;12.60;99.90;;;;;;5020902;28;20416;-85
2022/10/17 05:10:19;;;;;;;6.97;5.28;;;12.60;99.90;;;;;;5052029;28;20040;-86
2022/10/17 05:12:48;;;;;;;5.70;5.10;;;12.60;99.90;;;;;;5020742;28;20039;-85
2022/10/17 05:15:16;;;;;;;9.43;4.60;;;12.60;99.90;;;;;;5054358;28;20477;-87
2022/10/17 05:17:42;;;;;;;8.13;4.88;;;12.60;99.90;;;;;;5035879;28;20476;-86
2022/10/17 05:20:09;;;;;;;6.78;4.50;;;12.50;99.90;;;;;;5038367;28;20188;-86
2022/10/17 05:22:35;;;;;;;7.60;4.35;;;12.50;99.90;;;;;;5035132;28;20535;-85
2022/10/17 05:25:01;;;;;;;5.30;4.22;;;12.40;99.90;;;;;;5018478;28;20032;-85
2022/10/17 05:27:27;;;;;;;8.88;4.22;;;12.40;99.90;;;;;;5019098;28;20093;-85
2022/10/17 05:29:53;;;;;;;5.68;3.95;;;12.30;99.90;;;;;;5067969;28;20032;-86
2022/10/17 05:32:25;;;;;;;5.03;4.10;;;12.20;99.90;;;;;;5035337;28;20048;-86
2022/10/17 05:34:51;;;;;;;6.72;4.40;;;12.20;99.90;;;;;;5018403;28;20485;-85
2022/10/17 05:37:17;;;;;;;6.75;4.32;;;12.10;99.90;;;;;;5051264;28;20448;-85
2022/10/17 05:39:47;;;;;;;6.30;4.78;;;12.10;99.90;;;;;;5050563;28;20479;-85
2022/10/17 05:42:13;;;;;;;9.43;4.47;;;12.10;99.90;;;;;;5025000;28;20120;-86
2022/10/17 05:44:40;;;;;;;7.95;4.53;;;12.10;99.90;;;;;;5049525;28;20645;-85
2022/10/17 05:47:07;;;;;;;6.30;4.25;;;12.10;99.90;;;;;;5019184;28;20029;-85
2022/10/17 05:49:33;;;;;;;5.85;4.15;;;12.10;99.90;;;;;;5051397;28;20116;-85
2022/10/17 05:52:00;;;;;;;6.28;4.00;;;12.10;99.90;;;;;;5053760;28;20024;-85
2022/10/17 05:54:27;;;;;;;9.45;4.63;;;12.10;99.90;;;;;;5034391;28;20039;-85
2022/10/17 05:56:55;;;;;;;8.25;4.47;;;12.10;99.90;;;;;;5047172;28;20032;-85
2022/10/17 05:59:26;;;;;;;9.68;5.22;;;12.00;99.90;;;;;;5042199;28;20025;-86
2022/10/17 06:02:05;;;;;;;7.03;4.05;;;12.10;99.90;;;;;;5040006;28;20035;-85
2022/10/17 06:04:31;;;;;;;5.55;4.18;;;12.10;99.90;;;;;;5054807;28;20036;-85
2022/10/17 06:06:59;;;;;;;6.40;4.10;;;12.10;99.90;;;;;;5021953;28;20035;-85
2022/10/17 06:09:25;;;;;;;4.32;3.92;;;12.00;99.90;;;;;;5034057;28;20037;-84
2022/10/17 06:11:53;;;;;;;5.60;4.22;;;12.10;99.90;;;;;;5054716;28;20035;-86
2022/10/17 06:14:19;;;;;;;4.93;3.95;;;12.10;99.90;;;;;;5054297;28;20032;-86
2022/10/17 06:16:47;;;;;;;4.63;3.83;;;12.10;99.90;;;;;;5054889;28;20043;-85
2022/10/17 06:19:14;;;;;;;7.88;4.30;;;12.20;99.90;;;;;;5053695;28;20036;-86
2022/10/17 06:21:40;;;;;;;6.63;4.40;;;12.20;99.90;;;;;;5019919;28;20029;-86
2022/10/17 06:24:11;;;;;;;11.77;4.57;;;12.20;99.90;;;;;;5046321;28;20104;-86
2022/10/17 06:26:39;;;;;;;5.95;4.90;;;12.30;99.90;;;;;;5054785;28;20652;-84
2022/10/17 06:29:07;;;;;;;9.00;4.80;;;12.30;99.90;;;;;;5054480;28;20056;-84
2022/10/17 06:31:37;;;;;;;5.63;4.38;;;12.40;99.90;;;;;;5055724;28;20024;-86
2022/10/17 06:34:03;;;;;;;8.52;5.10;;;12.50;99.90;;;;;;5053720;28;20028;-85
2022/10/17 06:36:29;;;;;;;6.13;4.97;;;12.60;99.90;;;;;;5046893;28;20029;-86
2022/10/17 06:38:55;;;;;;;8.55;4.47;;;12.70;99.90;;;;;;5021050;28;20039;-85
2022/10/17 06:41:27;;;;;;;5.97;4.57;;;12.90;99.90;;;;;;5052638;28;20094;-86
2022/10/17 06:43:53;;;;;;;7.05;5.63;;;12.90;99.90;;;;;;5022184;28;20059;-86
2022/10/17 06:46:42;;;;;;;10.45;5.10;;;13.20;99.90;;;;;;5051662;28;20041;-87
2022/10/17 06:49:09;;;;;;;8.90;4.90;;;13.50;99.90;;;;;;5054997;28;20025;-84
2022/10/17 06:51:42;;;;;;;7.38;5.07;;;13.90;99.90;;;;;;5056210;28;20029;-86
2022/10/17 06:54:10;;;;;;;4.80;4.28;;;14.20;99.90;;;;;;5054760;28;20032;-86
2022/10/17 06:56:42;;;;;;;6.10;4.40;;;14.50;99.90;;;;;;5064850;28;20048;-85
2022/10/17 06:59:21;;;;;;;5.18;4.68;;;14.70;99.90;;;;;;5036571;28;20041;-86
2022/10/17 07:01:51;;;;;;;7.25;3.85;;;14.90;99.90;;;;;;5049725;28;20101;-86
2022/10/17 07:04:17;;;;;;;6.60;4.50;;;15.10;99.90;;;;;;5043317;28;20033;-86
2022/10/17 07:06:43;;;;;;;5.15;4.07;;;15.30;99.90;;;;;;5072255;28;20378;-86
2022/10/17 07:09:15;;;;;;;4.07;3.22;;;15.30;99.90;;;;;;5025972;28;20067;-87
2022/10/17 07:11:41;;;;;;;4.00;3.60;;;15.50;99.90;;;;;;5072638;28;20036;-89
2022/10/17 07:14:07;;;;;;;5.32;2.92;;;15.70;99.90;;;;;;5022876;28;20054;-88
2022/10/17 07:16:34;;;;;;;5.57;3.08;;;16.00;99.90;;;;;;5055853;28;20029;-88
2022/10/17 07:19:06;;;;;;;4.15;3.53;;;16.30;99.90;;;;;;5063753;28;20523;-87
2022/10/17 07:21:35;;;;;;;3.72;3.40;;;16.60;99.90;;;;;;5053275;28;20025;-88
2022/10/17 07:24:01;;;;;;;3.97;3.30;;;16.70;99.90;;;;;;5039634;28;20040;-86
2022/10/17 07:26:27;;;;;;;4.78;3.88;;;16.60;99.90;;;;;;5055835;28;20595;-86
2022/10/17 07:28:54;;;;;;;6.78;4.07;;;16.50;99.90;;;;;;5056305;28;20048;-86
2022/10/17 07:31:39;;;;;;;4.80;3.55;;;16.40;99.90;;;;;;5044355;28;20043;-85
2022/10/17 07:34:05;;;;;;;6.15;4.28;;;16.20;99.90;;;;;;5039579;28;20534;-88
2022/10/17 07:36:30;;;;;;;4.68;3.78;;;16.20;99.90;;;;;;5039255;28;20073;-85
2022/10/17 07:38:58;;;;;;;5.35;4.15;;;16.00;99.90;;;;;;5056297;28;20186;-87
2022/10/17 07:41:25;;;;;;;6.10;3.85;;;15.90;99.90;;;;;;5056290;28;20036;-85
2022/10/17 07:43:52;;;;;;;6.30;4.18;;;15.80;99.90;;;;;;5056120;28;20032;-88
2022/10/17 07:46:21;;;;;;;5.22;4.50;;;15.80;99.90;;;;;;5056163;28;20039;-88
2022/10/17 07:48:48;;;;;;;6.68;3.88;;;16.00;99.90;;;;;;5023354;28;20123;-85
2022/10/17 07:51:14;;;;;;;7.97;5.10;;;16.00;99.90;;;;;;5022608;28;20119;-85
2022/10/17 07:53:41;;;;;;;5.13;4.63;;;16.20;99.90;;;;;;5052275;28;20033;-86
2022/10/17 07:56:08;;;;;;;6.82;4.93;;;16.40;99.90;;;;;;5055576;28;20374;-86
2022/10/17 07:58:35;;;;;;;4.32;3.92;;;16.50;99.90;;;;;;5055593;28;20071;-86
2022/10/17 08:01:02;;;;;;;7.75;4.45;;;16.60;99.90;;;;;;5055506;28;20040;-86
2022/10/17 08:03:28;;;;;;;7.60;4.75;;;16.80;99.90;;;;;;5052513;28;20040;-84
2022/10/17 08:05:58;;;;;;;5.78;4.10;;;16.90;99.90;;;;;;5055104;28;20028;-86
2022/10/17 08:08:24;;;;;;;6.35;4.75;;;16.90;99.90;;;;;;5055458;28;20036;-86
2022/10/17 08:10:49;;;;;;;7.28;4.60;;;16.90;99.90;;;;;;5038839;28;20037;-87
2022/10/17 08:13:15;;;;;;;6.75;4.55;;;17.00;99.90;;;;;;5055521;28;20424;-86
2022/10/17 08:15:41;;;;;;;6.13;4.75;;;17.10;99.90;;;;;;5038633;28;20574;-85
2022/10/17 08:18:07;;;;;;;7.10;5.20;;;17.20;99.90;;;;;;5072133;28;20124;-86
2022/10/17 08:20:33;;;;;;;8.88;5.32;;;17.30;99.90;;;;;;5055210;28;20115;-86
2022/10/17 08:22:58;;;;;;;7.75;4.70;;;17.30;99.90;;;;;;5055191;28;20032;-86
2022/10/17 08:25:24;;;;;;;8.07;4.78;;;17.40;99.90;;;;;;5071060;28;20033;-86
2022/10/17 08:27:50;;;;;;;8.13;4.68;;;17.40;99.90;;;;;;5051962;28;20624;-85
2022/10/17 08:30:17;;;;;;;6.43;4.53;;;17.40;99.90;;;;;;5068465;28;20056;-88
2022/10/17 08:32:43;;;;;;;6.15;4.60;;;17.50;99.90;;;;;;5068188;28;20037;-87
2022/10/17 08:35:09;;;;;;;7.72;4.45;;;17.60;99.90;;;;;;5052968;28;20470;-85
2022/10/17 08:37:35;;;;;;;7.78;5.05;;;17.70;99.90;;;;;;5069851;28;20107;-86
2022/10/17 08:40:01;;;;;;;5.07;4.53;;;17.70;99.90;;;;;;5029479;28;20120;-87
2022/10/17 08:43:11;;;;;;;9.05;4.80;;;17.80;99.90;;;;;;5049453;28;20124;-86
2022/10/17 08:45:52;;;;;;;7.20;4.70;;;17.90;99.90;;;;;;5054472;28;20028;-85
2022/10/17 08:48:22;;;;;;;4.97;4.00;;;17.90;99.90;;;;;;5054501;28;20150;-85
2022/10/17 08:51:02;;;;;;;7.05;4.57;;;17.90;99.90;;;;;;5050691;28;20032;-86
2022/10/17 08:53:33;;;;;;;7.18;4.05;;;18.10;99.90;;;;;;5048250;28;20112;-85
2022/10/17 08:56:27;;;;;;;4.75;4.18;;;18.10;99.90;;;;;;5025579;28;20025;-85
2022/10/17 08:58:53;;;;;;;7.45;4.63;;;18.10;99.90;;;;;;5031553;28;20074;-85
2022/10/17 09:01:32;;;;;;;6.60;4.70;;;18.10;99.90;;;;;;5038096;28;20064;-84
2022/10/17 09:04:19;;;;;;;8.27;4.80;;;18.20;99.90;;;;;;5054326;28;20028;-85
2022/10/17 09:06:56;;;;;;;6.35;4.55;;;18.20;99.90;;;;;;5066090;28;20561;-84
2022/10/17 09:09:42;;;;;;;7.95;4.72;;;18.20;99.90;;;;;;5061941;28;20024;-85
2022/10/17 09:12:26;;;;;;;;;;;18.20;99.90;;;;;;5067539;28;20600;-86
2022/10/17 09:15:34;;;;;;;7.40;4.57;;;18.30;99.90;;;;;;5051667;28;19962;-86
2022/10/17 09:18:08;;;;;;;5.70;4.50;;;18.40;99.90;;;;;;5065077;28;20107;-85
2022/10/17 09:20:52;;;;;;;5.55;4.70;;;18.40;99.90;;;;;;5068230;28;20029;-86
2022/10/17 09:23:22;;;;;;;5.95;4.25;;;18.40;99.90;;;;;;5070249;28;20445;-86
2022/10/17 09:25:53;;;;;;;5.93;4.60;;;18.50;99.90;;;;;;5051192;28;20036;-86
2022/10/17 09:28:28;;;;;;;6.15;4.68;;;18.50;99.90;;;;;;5070521;28;20051;-85
2022/10/17 09:31:10;;;;;;;5.60;4.70;;;18.50;99.90;;;;;;5066106;28;20098;-86
2022/10/17 09:33:45;;;;;;;6.32;4.63;;;18.60;99.90;;;;;;5038835;28;20028;-85
2022/10/17 09:36:30;;;;;;;6.93;4.63;;;18.70;99.90;;;;;;5066392;28;20044;-85
2022/10/17 09:38:59;;;;;;;6.03;4.53;;;18.70;99.90;;;;;;5064326;28;20489;-85
2022/10/17 09:41:43;;;;;;;6.50;4.70;;;18.80;99.90;;;;;;5049484;28;20039;-84
2022/10/17 09:44:36;;;;;;;5.47;4.43;;;18.80;99.90;;;;;;5034926;28;20037;-84
2022/10/17 09:47:05;;;;;;;5.93;4.70;;;18.90;99.90;;;;;;5053024;28;20032;-85
2022/10/17 09:49:34;;;;;;;6.13;4.88;;;19.00;99.90;;;;;;5071397;28;20459;-85
2022/10/17 09:52:02;;;;;;;7.38;4.50;;;19.00;99.90;;;;;;5049816;28;20048;-85
2022/10/17 09:54:40;;;;;;;5.32;4.57;;;19.10;99.90;;;;;;5038212;28;20043;-85
2022/10/17 09:57:09;;;;;;;5.68;4.60;;;19.10;99.90;;;;;;5064613;28;20103;-88
2022/10/17 09:59:41;;;;;;;4.50;3.80;;;19.20;99.90;;;;;;5043369;28;20730;-87
2022/10/17 10:02:11;;;;;;;4.75;3.90;;;19.20;99.90;;;;;;5056156;28;20046;-87
2022/10/17 10:04:50;;;;;;;4.32;3.60;;;19.30;99.90;;;;;;5048889;28;21007;-85
2022/10/17 10:07:18;;;;;;;4.95;3.22;;;19.40;99.90;;;;;;5057487;28;20091;-86
2022/10/17 10:09:46;;;;;;;3.90;3.40;;;19.50;99.90;;;;;;5043453;28;20028;-85
2022/10/17 10:12:27;;;;;;;4.68;3.72;;;19.50;99.90;;;;;;5046885;28;20120;-86
2022/10/17 10:14:53;;;;;;;4.30;3.47;;;19.50;99.90;;;;;;5058603;28;20028;-86
2022/10/17 10:17:35;;;;;;;3.72;3.28;;;19.60;99.90;;;;;;5071550;28;20033;-85
2022/10/17 10:20:23;;;;;;;4.78;3.83;;;19.50;99.90;;;;;;5039565;28;20033;-89
2022/10/17 10:23:23;;;;;;;4.55;3.95;;;19.50;99.90;;;;;;5042308;28;20140;-86
2022/10/17 10:26:03;;;;;;;5.03;3.83;;;19.60;99.90;;;;;;5015790;28;20505;-85
2022/10/17 10:28:31;;;;;;;6.07;4.75;;;19.50;99.90;;;;;;5058840;28;20032;-85
2022/10/17 10:31:03;;;;;;;5.45;4.05;;;19.50;99.90;;;;;;5050542;28;20025;-85
2022/10/17 10:33:30;;;;;;;6.97;3.80;;;19.50;99.90;;;;;;5045997;28;20676;-85
2022/10/17 10:36:02;;;;;;;5.57;4.35;;;19.60;99.90;;;;;;5059742;28;20059;-84
2022/10/17 10:38:31;;;;;;;7.28;4.63;;;19.60;99.90;;;;;;5067489;28;20052;-86
2022/10/17 10:41:06;;;;;;;8.60;4.80;;;19.60;99.90;;;;;;5067085;28;20427;-85
2022/10/17 10:43:39;;;;;;;6.72;4.88;;;19.50;99.90;;;;;;5086485;28;20036;-86
2022/10/17 10:46:22;;;;;;;9.00;4.88;;;19.60;99.90;;;;;;5060129;28;20485;-85
2022/10/17 10:48:52;;;;;;;6.47;4.53;;;19.60;99.90;;;;;;5073389;28;20636;-88
2022/10/17 10:51:41;;;;;;;6.45;5.43;;;19.70;99.90;;;;;;5073291;28;20029;-85
2022/10/17 10:54:25;;;;;;;7.18;4.80;;;19.90;99.90;;;;;;5061576;28;20071;-86
2022/10/17 10:56:54;;;;;;;7.45;4.80;;;20.00;99.90;;;;;;5057005;28;20024;-85
2022/10/17 10:59:34;;;;;;;9.23;4.53;;;20.00;99.90;;;;;;5040902;28;20047;-85
2022/10/17 11:02:18;;;;;;;8.38;5.70;;;20.10;99.90;;;;;;5064555;28;20078;-85
2022/10/17 11:04:46;;;;;;;4.68;4.20;;;20.20;99.90;;;;;;5065043;28;20025;-85
2022/10/17 11:07:14;;;;;;;5.95;4.38;;;20.30;99.90;;;;;;5071829;28;20866;-85
2022/10/17 11:10:06;;;;;;;6.13;5.00;;;20.30;99.90;;;;;;5060838;28;20052;-85
2022/10/17 11:12:46;;;;;;;5.60;4.97;;;20.30;99.90;;;;;;5073317;28;20063;-85
2022/10/17 11:15:55;;;;;;;7.60;5.03;;;20.40;99.90;;;;;;5073290;28;20029;-85
2022/10/17 11:18:32;;;;;;;6.53;4.70;;;20.40;99.90;;;;;;5045438;28;20501;-85
2022/10/17 11:21:27;;;;;;;7.38;4.90;;;20.40;99.90;;;;;;5045216;28;20040;-86
2022/10/17 11:24:09;;;;;;;5.93;4.55;;;20.40;99.90;;;;;;5060306;28;20519;-84
2022/10/17 11:26:42;;;;;;;7.82;4.78;;;20.40;99.90;;;;;;5069064;28;20099;-88
2022/10/17 11:29:11;;;;;;;5.53;4.72;;;20.40;99.90;;;;;;5073125;28;20039;-85
2022/10/17 11:31:47;;;;;;;5.13;4.57;;;20.40;99.90;;;;;;5040121;28;20085;-84
2022/10/17 11:34:28;;;;;;;6.25;4.80;;;20.50;99.90;;;;;;5023467;28;20039;-86
2022/10/17 11:37:01;;;;;;;6.75;4.88;;;20.50;99.90;;;;;;5055977;28;20452;-85
2022/10/17 11:39:50;;;;;;;6.82;4.65;;;20.50;99.90;;;;;;5050413;28;20112;-85
2022/10/17 11:42:40;;;;;;;9.60;4.60;;;20.60;99.90;;;;;;5055098;28;20060;-85
2022/10/17 11:45:15;;;;;;;6.57;4.75;;;20.60;99.90;;;;;;5042360;28;20033;-85
2022/10/17 11:47:57;;;;;;;5.25;4.57;;;20.70;99.90;;;;;;5038189;28;20097;-85
2022/10/17 11:50:33;;;;;;;4.30;3.85;;;20.80;99.90;;;;;;5055939;28;20104;-85
2022/10/17 11:53:08;;;;;;;4.53;3.95;;;20.80;99.90;;;;;;5040065;28;20490;-84
2022/10/17 11:55:37;;;;;;;7.90;4.22;;;20.80;99.90;;;;;;5069479;28;20016;-85
2022/10/17 11:58:23;;;;;;;5.97;4.55;;;20.80;99.90;;;;;;5038401;28;20035;-85
2022/10/17 12:00:52;;;;;;;5.35;4.05;;;20.90;99.90;;;;;;5063311;28;20074;-85
2022/10/17 12:03:45;;;;;;;5.20;4.70;;;20.90;99.90;;;;;;5042221;28;20037;-84
2022/10/17 12:06:30;;;;;;;8.18;4.47;;;20.90;99.90;;;;;;5060819;28;20480;-85
2022/10/17 12:09:07;;;;;;;6.47;3.95;;;21.00;99.90;;;;;;5062316;28;20032;-85
2022/10/17 12:11:52;;;;;;;5.63;4.43;;;21.00;99.90;;;;;;5071859;28;20037;-84
2022/10/17 12:14:36;;;;;;;5.55;4.57;;;21.10;99.90;;;;;;5055086;28;20644;-84
2022/10/17 12:17:04;;;;;;;6.05;4.32;;;21.10;99.90;;;;;;5066999;28;20497;-84
2022/10/17 12:19:36;;;;;;;6.13;4.95;;;21.10;99.90;;;;;;5067282;28;20123;-85
2022/10/17 12:22:19;;;;;;;7.25;4.05;;;21.10;99.90;;;;;;5073117;28;20033;-86
2022/10/17 12:24:55;;;;;;;5.15;3.88;;;21.00;99.90;;;;;;5052130;28;20043;-85
2022/10/17 12:27:30;;;;;;;5.45;3.72;;;20.90;99.90;;;;;;5041283;28;20440;-86
2022/10/17 12:30:02;;;;;;;4.73;4.00;;;20.90;99.90;;;;;;5069088;28;20115;-86
2022/10/17 12:32:28;;;;;;;4.38;3.90;;;20.90;99.90;;;;;;5052683;28;20029;-86
2022/10/17 12:34:55;;;;;;;4.25;3.55;;;20.80;99.90;;;;;;5069246;28;20085;-86
2022/10/17 12:37:41;;;;;;;6.90;4.55;;;20.80;99.90;;;;;;5052044;28;20028;-85
2022/10/17 12:40:26;;;;;;;;;;;20.70;99.90;;;;;;5031464;28;20800;-85
2022/10/17 12:42:52;;;;;;;7.72;4.47;;;20.70;99.90;;;;;;5067547;28;20362;-85
2022/10/17 12:46:09;;;;;;;6.22;3.90;;;20.90;99.90;;;;;;5064414;28;20045;-86
2022/10/17 12:48:38;;;;;;;;;;;21.00;99.90;;;;;;5031137;28;20111;-86
2022/10/17 12:51:16;;;;;;;6.22;4.72;;;21.20;99.90;;;;;;5046330;28;19912;-85
2022/10/17 12:53:54;;;;;;;5.10;3.30;;;21.20;99.90;;;;;;5051781;28;20090;-85
2022/10/17 12:56:44;;;;;;;4.80;3.80;;;21.10;99.90;;;;;;5067630;28;20070;-85
2022/10/17 12:59:21;;;;;;;4.63;3.60;;;21.10;99.90;;;;;;5052380;28;20021;-85
2022/10/17 13:01:50;;;;;;;4.50;3.63;;;21.00;99.90;;;;;;5050619;28;20094;-84
2022/10/17 13:04:17;;;;;;;4.45;3.58;;;21.00;99.90;;;;;;5025435;28;20044;-84
2022/10/17 13:06:46;;;;;;;6.95;3.80;;;21.00;99.90;;;;;;5045237;28;20082;-84
2022/10/17 13:09:18;;;;;;;3.88;3.38;;;21.10;99.90;;;;;;5052711;28;20037;-84
2022/10/17 13:11:44;;;;;;;5.20;3.85;;;21.00;99.90;;;;;;5064385;28;20064;-85
2022/10/17 13:14:15;;;;;;;4.82;3.90;;;21.00;99.90;;;;;;5035273;28;20515;-84